createdAt,value
2023-05-20T00:00:01.571Z,2.97
2023-05-20T00:02:28.806Z,3.85
2023-05-20T00:04:55.886Z,3.72
2023-05-20T00:07:23.094Z,3.72
2023-05-20T00:09:49.737Z,2.67
2023-05-20T00:12:16.488Z,3.33
2023-05-20T00:14:43.166Z,3.42
2023-05-20T00:17:09.713Z,3.78
2023-05-20T00:19:36.320Z,3.42
2023-05-20T00:22:02.899Z,4.68
2023-05-20T00:24:29.568Z,3.97
2023-05-20T00:26:55.974Z,3.90
2023-05-20T00:29:22.739Z,3.88
2023-05-20T00:31:49.300Z,4.47
2023-05-20T00:34:16.052Z,3.78
2023-05-20T00:36:43.244Z,4.30
2023-05-20T00:39:10.145Z,4.93
2023-05-20T00:41:36.698Z,3.60
2023-05-20T00:44:03.326Z,4.10
2023-05-20T00:46:30.083Z,3.47
2023-05-20T00:48:57.704Z,4.32
2023-05-20T00:51:24.221Z,3.90
2023-05-20T00:53:51.384Z,5.07
2023-05-20T00:56:18.621Z,4.15
2023-05-20T00:58:45.160Z,3.80
2023-05-20T01:01:11.858Z,4.40
2023-05-20T01:03:39.025Z,4.25
2023-05-20T01:06:05.749Z,4.53
2023-05-20T01:08:32.437Z,4.60
2023-05-20T01:11:06.785Z,5.18
2023-05-20T01:13:43.143Z,4.78
2023-05-20T01:16:11.448Z,4.03
2023-05-20T01:18:39.329Z,4.22
2023-05-20T01:21:10.876Z,4.10
2023-05-20T01:23:41.922Z,4.95
2023-05-20T01:26:10.420Z,4.37
2023-05-20T01:28:39.040Z,4.28
2023-05-20T01:31:10.868Z,4.35
2023-05-20T01:33:41.147Z,4.43
2023-05-20T01:36:09.822Z,5.20
2023-05-20T01:38:37.161Z,4.50
2023-05-20T01:41:07.828Z,4.60
2023-05-20T01:43:37.649Z,4.68
2023-05-20T01:46:06.628Z,5.00
2023-05-20T01:48:33.426Z,4.53
2023-05-20T01:51:02.268Z,4.57
2023-05-20T01:53:29.006Z,4.22
2023-05-20T01:55:55.633Z,3.85
2023-05-20T01:58:22.478Z,4.30
2023-05-20T02:00:49.263Z,5.97
2023-05-20T02:03:18.557Z,4.72
2023-05-20T02:05:45.661Z,4.57
2023-05-20T02:08:16.345Z,4.85
2023-05-20T02:10:42.819Z,5.32
2023-05-20T02:13:09.488Z,4.90
2023-05-20T02:15:36.209Z,4.80
2023-05-20T02:18:05.701Z,4.07
2023-05-20T02:20:36.151Z,4.40
2023-05-20T02:23:05.678Z,4.80
2023-05-20T02:25:34.095Z,3.45
2023-05-20T02:28:01.003Z,4.07
2023-05-20T02:30:29.807Z,3.47
2023-05-20T02:32:57.794Z,5.15
2023-05-20T02:35:24.319Z,5.05
2023-05-20T02:37:50.790Z,4.35
2023-05-20T02:40:17.306Z,4.47
2023-05-20T02:42:43.840Z,4.53
2023-05-20T02:45:10.493Z,4.90
2023-05-20T02:47:37.037Z,3.72
2023-05-20T02:50:03.750Z,4.40
2023-05-20T02:52:30.245Z,4.82
2023-05-20T02:54:56.968Z,4.15
2023-05-20T02:57:23.601Z,4.07
2023-05-20T02:59:50.079Z,4.22
2023-05-20T03:02:16.895Z,3.75
2023-05-20T03:04:43.481Z,5.18
2023-05-20T03:07:10.113Z,4.78
2023-05-20T03:09:36.660Z,3.53
2023-05-20T03:12:03.445Z,3.95
2023-05-20T03:14:30.050Z,3.83
2023-05-20T03:16:56.997Z,3.92
2023-05-20T03:19:26.719Z,4.35
2023-05-20T03:21:53.555Z,4.65
2023-05-20T03:24:20.032Z,4.13
2023-05-20T03:26:47.091Z,3.20
2023-05-20T03:29:13.718Z,3.67
2023-05-20T03:31:40.444Z,5.18
2023-05-20T03:34:08.313Z,3.97
2023-05-20T03:36:34.876Z,5.25
2023-05-20T03:39:02.075Z,3.75
2023-05-20T03:41:28.591Z,4.10
2023-05-20T03:43:55.416Z,3.92
2023-05-20T03:46:24.132Z,4.32
2023-05-20T03:48:50.802Z,4.28
2023-05-20T03:51:17.274Z,5.03
2023-05-20T03:53:44.959Z,4.57
2023-05-20T03:56:11.453Z,3.90
2023-05-20T03:58:38.747Z,3.95
2023-05-20T04:01:05.943Z,4.85
2023-05-20T04:03:32.602Z,4.00
2023-05-20T04:06:00.324Z,4.35
2023-05-20T04:08:26.825Z,4.10
2023-05-20T04:10:57.299Z,3.85
2023-05-20T04:13:25.479Z,4.72
2023-05-20T04:15:53.259Z,4.05
2023-05-20T04:18:19.730Z,4.78
2023-05-20T04:20:47.060Z,4.65
2023-05-20T04:23:14.077Z,5.22
2023-05-20T04:25:42.031Z,4.30
2023-05-20T04:28:12.609Z,4.45
2023-05-20T04:30:39.072Z,4.25
2023-05-20T04:33:06.288Z,4.57
2023-05-20T04:35:42.858Z,4.30
2023-05-20T04:38:32.606Z,3.97
2023-05-20T04:41:02.321Z,4.88
2023-05-20T04:43:39.198Z,3.60
2023-05-20T04:46:11.274Z,4.50
2023-05-20T04:51:07.301Z,4.05
2023-05-20T04:53:34.089Z,3.60
2023-05-20T04:56:03.625Z,3.80
2023-05-20T04:58:31.625Z,4.20
2023-05-20T05:00:58.096Z,4.90
2023-05-20T05:03:24.636Z,4.15
2023-05-20T05:05:51.621Z,4.05
2023-05-20T05:08:18.193Z,4.90
2023-05-20T05:10:45.305Z,5.07
2023-05-20T05:13:11.972Z,4.03
2023-05-20T05:15:38.502Z,3.88
2023-05-20T05:18:05.025Z,3.95
2023-05-20T05:20:31.674Z,4.90
2023-05-20T05:22:58.178Z,3.42
2023-05-20T05:25:24.616Z,4.25
2023-05-20T05:27:51.239Z,3.83
2023-05-20T05:30:18.035Z,4.63
2023-05-20T05:32:44.910Z,3.53
2023-05-20T05:35:11.480Z,3.60
2023-05-20T05:37:37.963Z,4.78
2023-05-20T05:40:04.905Z,4.32
2023-05-20T05:42:32.889Z,4.60
2023-05-20T05:44:59.482Z,4.25
2023-05-20T05:47:31.594Z,4.13
2023-05-20T05:49:59.875Z,3.90
2023-05-20T05:52:29.308Z,3.65
2023-05-20T05:54:55.978Z,4.30
2023-05-20T05:57:22.713Z,3.50
2023-05-20T05:59:50.730Z,4.40
2023-05-20T06:02:22.065Z,4.05
2023-05-20T06:04:48.545Z,3.33
2023-05-20T06:07:15.358Z,4.80
2023-05-20T06:09:41.944Z,3.78
2023-05-20T06:12:08.401Z,3.45
2023-05-20T06:14:34.910Z,3.30
2023-05-20T06:17:02.456Z,3.40
2023-05-20T06:19:29.040Z,2.78
2023-05-20T06:21:56.971Z,2.97
2023-05-20T06:24:24.429Z,3.92
2023-05-20T06:26:52.349Z,3.22
2023-05-20T06:29:18.820Z,4.40
2023-05-20T06:31:45.633Z,3.92
2023-05-20T06:34:12.122Z,3.60
2023-05-20T06:36:38.594Z,3.83
2023-05-20T06:39:06.537Z,3.20
2023-05-20T06:41:33.056Z,2.95
2023-05-20T06:43:59.694Z,3.47
2023-05-20T06:46:26.468Z,2.60
2023-05-20T06:48:55.330Z,3.97
2023-05-20T06:51:22.029Z,4.50
2023-05-20T06:53:48.585Z,2.92
2023-05-20T06:56:18.105Z,3.45
2023-05-20T06:58:48.019Z,2.70
2023-05-20T07:01:16.012Z,3.85
2023-05-20T07:03:44.571Z,3.13
2023-05-20T07:06:11.301Z,3.17
2023-05-20T07:08:37.824Z,2.75
2023-05-20T07:11:04.394Z,2.45
2023-05-20T07:13:31.258Z,3.13
2023-05-20T07:15:57.815Z,2.60
2023-05-20T07:18:24.444Z,3.70
2023-05-20T07:20:50.939Z,3.10
2023-05-20T07:23:17.366Z,3.20
2023-05-20T07:25:44.290Z,3.90
2023-05-20T07:28:11.514Z,2.50
2023-05-20T07:30:40.906Z,3.45
2023-05-20T07:33:07.476Z,2.88
2023-05-20T07:35:34.312Z,2.88
2023-05-20T07:38:01.132Z,2.80
2023-05-20T07:40:27.597Z,2.97
2023-05-20T07:42:54.035Z,3.33
2023-05-20T07:45:20.921Z,2.85
2023-05-20T07:47:47.454Z,2.60
2023-05-20T07:50:13.908Z,2.30
2023-05-20T07:52:55.271Z,3.08
2023-05-20T07:55:23.019Z,3.28
2023-05-20T07:57:50.032Z,2.35
2023-05-20T08:00:16.593Z,2.28
2023-05-20T08:02:43.176Z,2.67
2023-05-20T08:05:09.854Z,3.30
2023-05-20T08:07:36.351Z,2.65
2023-05-20T08:10:03.893Z,2.60
2023-05-20T08:12:30.343Z,2.92
2023-05-20T08:14:56.832Z,2.50
2023-05-20T08:17:23.604Z,2.30
2023-05-20T08:19:51.369Z,2.15
2023-05-20T08:22:17.862Z,2.65
2023-05-20T08:24:44.418Z,3.03
2023-05-20T08:27:10.908Z,2.47
2023-05-20T08:29:37.517Z,1.80
2023-05-20T08:32:04.406Z,1.77
2023-05-20T08:34:30.910Z,1.85
2023-05-20T08:36:57.945Z,2.42
2023-05-20T08:39:25.606Z,2.42
2023-05-20T08:41:52.332Z,2.65
2023-05-20T08:44:19.520Z,1.90
2023-05-20T08:46:46.496Z,2.00
2023-05-20T08:49:20.149Z,2.05
2023-05-20T08:51:47.444Z,1.88
2023-05-20T08:54:16.813Z,2.75
2023-05-20T08:56:44.476Z,1.77
2023-05-20T08:59:11.202Z,1.95
2023-05-20T09:01:43.493Z,2.08
2023-05-20T09:04:10.101Z,1.98
2023-05-20T09:06:47.155Z,2.05
2023-05-20T09:09:15.794Z,1.60
2023-05-20T09:11:42.925Z,2.05
2023-05-20T09:14:09.548Z,2.30
2023-05-20T09:16:36.118Z,1.80
2023-05-20T09:19:06.317Z,1.83
2023-05-20T09:21:33.485Z,2.30
2023-05-20T09:24:02.601Z,1.60
2023-05-20T09:26:34.932Z,1.63
2023-05-20T09:29:01.360Z,1.85
2023-05-20T09:31:30.746Z,2.30
2023-05-20T09:33:57.343Z,1.80
2023-05-20T09:36:26.602Z,1.67
2023-05-20T09:38:54.497Z,1.90
2023-05-20T09:41:24.259Z,1.80
2023-05-20T09:43:52.905Z,1.55
2023-05-20T09:46:20.369Z,2.30
2023-05-20T09:48:47.140Z,1.70
2023-05-20T09:51:14.802Z,1.25
2023-05-20T09:53:41.963Z,1.50
2023-05-20T09:56:08.435Z,2.00
2023-05-20T09:58:36.870Z,1.80
2023-05-20T10:01:03.709Z,1.80
2023-05-20T10:03:30.535Z,1.40
2023-05-20T10:06:14.734Z,1.65
2023-05-20T10:08:54.152Z,1.70
2023-05-20T10:11:40.332Z,1.48
2023-05-20T10:14:26.240Z,2.10
2023-05-20T10:17:10.155Z,2.78
2023-05-20T10:19:37.031Z,1.90
2023-05-20T10:22:04.540Z,2.20
2023-05-20T10:24:40.941Z,1.90
2023-05-20T10:27:16.177Z,1.83
2023-05-20T10:29:50.514Z,1.65
2023-05-20T10:32:35.972Z,2.15
2023-05-20T10:35:10.019Z,2.42
2023-05-20T10:37:45.346Z,1.88
2023-05-20T10:40:19.196Z,1.90
2023-05-20T10:42:47.379Z,1.90
2023-05-20T10:45:30.272Z,2.38
2023-05-20T10:47:58.815Z,2.25
2023-05-20T10:50:37.201Z,2.17
2023-05-20T10:53:13.354Z,1.50
2023-05-20T10:55:54.615Z,1.55
2023-05-20T10:58:23.477Z,1.58
2023-05-20T11:00:54.274Z,1.50
2023-05-20T11:03:25.146Z,1.75
2023-05-20T11:05:51.883Z,1.75
2023-05-20T11:08:28.901Z,2.10
2023-05-20T11:10:59.401Z,1.48
2023-05-20T11:13:26.345Z,1.50
2023-05-20T11:15:52.992Z,2.00
2023-05-20T11:18:19.497Z,1.63
2023-05-20T11:20:49.090Z,1.65
2023-05-20T11:23:15.833Z,1.80
2023-05-20T11:25:42.735Z,1.50
2023-05-20T11:28:14.795Z,1.23
2023-05-20T11:30:43.220Z,1.83
2023-05-20T11:33:12.815Z,1.90
2023-05-20T11:35:46.979Z,1.83
2023-05-20T11:38:13.694Z,1.60
2023-05-20T11:40:50.867Z,2.00
2023-05-20T11:43:18.722Z,1.60
2023-05-20T11:45:47.385Z,1.63
2023-05-20T11:48:15.797Z,1.35
2023-05-20T11:50:44.695Z,1.30
2023-05-20T11:53:15.667Z,1.33
2023-05-20T11:55:56.146Z,2.78
2023-05-20T11:58:25.108Z,1.50
2023-05-20T12:00:59.103Z,1.60
2023-05-20T12:03:32.960Z,1.80
2023-05-20T12:06:01.564Z,1.48
2023-05-20T12:08:28.007Z,1.60
2023-05-20T12:10:54.531Z,1.60
2023-05-20T12:13:21.370Z,1.85
2023-05-20T12:15:48.081Z,2.17
2023-05-20T12:18:15.593Z,1.85
2023-05-20T12:20:42.870Z,1.70
2023-05-20T12:23:09.425Z,1.63
2023-05-20T12:25:36.004Z,1.67
2023-05-20T12:28:04.055Z,1.35
2023-05-20T12:30:30.973Z,1.52
2023-05-20T12:32:57.526Z,1.83
2023-05-20T12:35:39.130Z,1.70
2023-05-20T12:38:06.808Z,1.42
2023-05-20T12:40:34.051Z,1.23
2023-05-20T12:43:02.358Z,1.75
2023-05-20T12:45:31.217Z,2.60
2023-05-20T12:47:57.798Z,1.88
2023-05-20T12:50:25.328Z,1.70
2023-05-20T12:52:54.707Z,1.52
2023-05-20T12:55:21.360Z,1.60
2023-05-20T12:57:48.246Z,2.03
2023-05-20T13:00:15.617Z,1.90
2023-05-20T13:02:42.821Z,1.27
2023-05-20T13:05:10.498Z,1.30
2023-05-20T13:07:37.239Z,1.77
2023-05-20T13:10:06.050Z,1.20
2023-05-20T13:12:32.578Z,1.42
2023-05-20T13:14:59.056Z,2.17
2023-05-20T13:17:25.571Z,1.58
2023-05-20T13:19:52.434Z,1.92
2023-05-20T13:22:19.792Z,1.40
2023-05-20T13:24:46.440Z,1.20
2023-05-20T13:27:13.014Z,1.48
2023-05-20T13:29:39.564Z,1.73
2023-05-20T13:32:06.621Z,1.42
2023-05-20T13:34:33.114Z,1.75
2023-05-20T13:36:59.600Z,1.77
2023-05-20T13:39:26.086Z,1.10
2023-05-20T13:41:54.878Z,1.33
2023-05-20T13:44:21.411Z,1.10
2023-05-20T13:46:48.306Z,1.80
2023-05-20T13:49:14.984Z,1.30
2023-05-20T13:51:41.493Z,1.60
2023-05-20T13:54:07.952Z,1.45
2023-05-20T13:56:34.557Z,1.20
2023-05-20T13:59:01.140Z,1.48
2023-05-20T14:01:30.251Z,1.40
2023-05-20T14:03:59.535Z,1.90
2023-05-20T14:06:26.948Z,1.40
2023-05-20T14:08:56.909Z,1.52
2023-05-20T14:11:23.518Z,1.30
2023-05-20T14:13:50.016Z,1.70
2023-05-20T14:16:16.631Z,1.55
2023-05-20T14:18:43.379Z,1.88
2023-05-20T14:21:11.149Z,1.60
2023-05-20T14:23:37.919Z,1.38
2023-05-20T14:26:04.468Z,1.73
2023-05-20T14:28:31.147Z,1.23
2023-05-20T14:30:57.597Z,1.73
2023-05-20T14:33:24.332Z,1.55
2023-05-20T14:35:51.156Z,1.70
2023-05-20T14:38:18.697Z,1.80
2023-05-20T14:40:52.493Z,1.45
2023-05-20T14:43:18.955Z,1.25
2023-05-20T14:45:46.817Z,1.60
2023-05-20T14:48:13.418Z,1.50
2023-05-20T14:50:43.050Z,1.50
2023-05-20T14:53:09.455Z,1.77
2023-05-20T14:55:38.509Z,1.65
2023-05-20T14:58:07.117Z,1.70
2023-05-20T15:00:34.183Z,1.67
2023-05-20T15:03:01.235Z,1.50
2023-05-20T15:05:27.796Z,1.38
2023-05-20T15:07:55.563Z,1.63
2023-05-20T15:10:22.062Z,0.90
2023-05-20T15:12:52.355Z,1.20
2023-05-20T15:15:23.239Z,1.30
2023-05-20T15:17:49.762Z,1.75
2023-05-20T15:20:21.398Z,1.30
2023-05-20T15:22:48.311Z,1.13
2023-05-20T15:25:15.543Z,2.05
2023-05-20T15:27:42.292Z,1.55
2023-05-20T15:30:09.804Z,1.75
2023-05-20T15:32:36.547Z,1.50
2023-05-20T15:35:04.203Z,1.25
2023-05-20T15:37:30.755Z,1.70
2023-05-20T15:39:57.257Z,1.42
2023-05-20T15:42:24.973Z,1.48
2023-05-20T15:44:51.579Z,1.67
2023-05-20T15:47:18.206Z,1.88
2023-05-20T15:49:44.871Z,1.63
2023-05-20T15:52:11.346Z,1.50
2023-05-20T15:54:37.861Z,1.60
2023-05-20T15:57:05.118Z,1.92
2023-05-20T15:59:31.858Z,1.80
2023-05-20T16:01:58.756Z,1.50
2023-05-20T16:04:25.841Z,1.27
2023-05-20T16:06:52.354Z,1.27
2023-05-20T16:09:18.868Z,1.52
2023-05-20T16:11:46.472Z,1.77
2023-05-20T16:14:13.147Z,1.88
2023-05-20T16:16:39.906Z,1.40
2023-05-20T16:19:06.556Z,1.80
2023-05-20T16:21:33.105Z,1.95
2023-05-20T16:23:59.645Z,1.70
2023-05-20T16:26:30.745Z,1.40
2023-05-20T16:28:57.813Z,1.58
2023-05-20T16:31:24.501Z,1.73
2023-05-20T16:33:51.229Z,1.73
2023-05-20T16:36:17.820Z,1.35
2023-05-20T16:38:44.299Z,1.90
2023-05-20T16:41:15.996Z,1.70
2023-05-20T16:43:42.699Z,2.08
2023-05-20T16:46:09.208Z,1.63
2023-05-20T16:48:36.009Z,1.45
2023-05-20T16:51:02.716Z,1.02
2023-05-20T16:53:29.100Z,1.80
2023-05-20T16:55:55.542Z,1.90
2023-05-20T16:58:22.013Z,1.27
2023-05-20T17:00:48.500Z,1.70
2023-05-20T17:03:18.114Z,1.80
2023-05-20T17:05:46.841Z,1.25
2023-05-20T17:08:13.779Z,1.67
2023-05-20T17:10:40.357Z,1.50
2023-05-20T17:13:06.786Z,1.30
2023-05-20T17:15:36.959Z,1.70
2023-05-20T17:18:04.153Z,1.30
2023-05-20T17:20:30.907Z,1.50
2023-05-20T17:22:57.387Z,1.27
2023-05-20T17:25:23.910Z,1.40
2023-05-20T17:27:50.816Z,1.90
2023-05-20T17:30:17.671Z,1.42
2023-05-20T17:32:44.261Z,1.67
2023-05-20T17:35:10.925Z,1.60
2023-05-20T17:37:37.667Z,1.63
2023-05-20T17:40:07.299Z,1.80
2023-05-20T17:42:36.059Z,1.40
2023-05-20T17:45:02.570Z,1.52
2023-05-20T17:47:29.012Z,1.27
2023-05-20T17:49:55.638Z,1.73
2023-05-20T17:52:22.133Z,1.30
2023-05-20T17:54:48.655Z,1.58
2023-05-20T17:57:15.558Z,1.55
2023-05-20T17:59:42.114Z,2.22
2023-05-20T18:02:08.869Z,1.30
2023-05-20T18:04:37.862Z,1.67
2023-05-20T18:07:04.488Z,1.10
2023-05-20T18:09:34.442Z,1.23
2023-05-20T18:12:03.377Z,1.33
2023-05-20T18:14:29.836Z,1.50
2023-05-20T18:16:57.530Z,1.33
2023-05-20T18:19:27.088Z,1.30
2023-05-20T18:21:53.645Z,1.60
2023-05-20T18:24:20.630Z,2.03
2023-05-20T18:26:49.963Z,2.00
2023-05-20T18:29:16.549Z,1.77
2023-05-20T18:31:43.622Z,2.13
2023-05-20T18:34:10.628Z,1.52
2023-05-20T18:36:38.730Z,1.40
2023-05-20T18:39:05.199Z,2.10
2023-05-20T18:41:45.875Z,1.60
2023-05-20T18:46:40.520Z,1.67
2023-05-20T18:49:07.055Z,1.80
2023-05-20T18:51:33.860Z,2.55
2023-05-20T18:54:00.450Z,1.42
2023-05-20T18:56:29.244Z,1.85
2023-05-20T18:58:56.864Z,1.58
2023-05-20T19:01:24.055Z,1.48
2023-05-20T19:03:51.798Z,1.85
2023-05-20T19:06:18.752Z,1.60
2023-05-20T19:08:46.106Z,1.83
2023-05-20T19:11:12.560Z,1.63
2023-05-20T19:13:39.001Z,1.75
2023-05-20T19:16:06.119Z,1.90
2023-05-20T19:18:34.098Z,1.30
2023-05-20T19:21:00.932Z,1.70
2023-05-20T19:23:27.452Z,1.20
2023-05-20T19:25:53.965Z,1.88
2023-05-20T19:28:20.709Z,1.70
2023-05-20T19:30:47.244Z,1.80
2023-05-20T19:33:13.678Z,1.25
2023-05-20T19:35:40.193Z,1.55
2023-05-20T19:38:06.930Z,2.17
2023-05-20T19:40:33.468Z,1.88
2023-05-20T19:42:59.983Z,1.98
2023-05-20T19:45:26.759Z,1.50
2023-05-20T19:47:53.322Z,1.58
2023-05-20T19:50:19.877Z,1.70
2023-05-20T19:52:46.323Z,1.48
2023-05-20T19:55:12.807Z,1.35
2023-05-20T19:57:39.421Z,1.20
2023-05-20T20:00:11.212Z,1.52
2023-05-20T20:02:37.735Z,1.50
2023-05-20T20:05:04.867Z,1.52
2023-05-20T20:07:32.140Z,1.55
2023-05-20T20:09:58.608Z,2.03
2023-05-20T20:12:25.057Z,1.80
2023-05-20T20:14:52.246Z,1.55
2023-05-20T20:17:20.128Z,2.22
2023-05-20T20:19:49.316Z,1.70
2023-05-20T20:22:16.672Z,1.60
2023-05-20T20:24:43.177Z,1.25
2023-05-20T20:27:10.534Z,1.60
2023-05-20T20:29:37.064Z,1.50
2023-05-20T20:32:04.501Z,2.10
2023-05-20T20:34:31.217Z,2.17
2023-05-20T20:37:01.607Z,1.70
2023-05-20T20:39:29.669Z,1.95
2023-05-20T20:41:58.571Z,1.70
2023-05-20T20:44:25.518Z,2.00
2023-05-20T20:46:52.587Z,1.90
2023-05-20T20:49:19.744Z,1.88
2023-05-20T20:51:47.420Z,1.70
2023-05-20T20:54:17.038Z,2.58
2023-05-20T20:56:47.148Z,1.98
2023-05-20T20:59:15.598Z,1.55
2023-05-20T21:01:42.247Z,1.70
2023-05-20T21:04:09.314Z,1.30
2023-05-20T21:06:37.897Z,1.67
2023-05-20T21:09:04.703Z,1.80
2023-05-20T21:11:31.156Z,1.70
2023-05-20T21:14:01.592Z,1.80
2023-05-20T21:16:31.449Z,1.30
2023-05-20T21:18:58.021Z,1.30
2023-05-20T21:21:24.476Z,2.20
2023-05-20T21:23:52.115Z,2.05
2023-05-20T21:26:21.186Z,1.92
2023-05-20T21:28:50.326Z,1.92
2023-05-20T21:31:17.024Z,2.13
2023-05-20T21:33:43.706Z,2.25
2023-05-20T21:36:10.327Z,2.15
2023-05-20T21:38:36.772Z,2.10
2023-05-20T21:41:06.141Z,2.10
2023-05-20T21:43:32.567Z,1.70
2023-05-20T21:45:59.153Z,1.88
2023-05-20T21:48:28.754Z,2.05
2023-05-20T21:50:56.613Z,2.00
2023-05-20T21:53:23.071Z,1.63
2023-05-20T21:55:49.813Z,2.03
2023-05-20T21:58:16.323Z,2.08
2023-05-20T22:00:42.994Z,1.55
2023-05-20T22:03:09.780Z,1.50
2023-05-20T22:05:37.742Z,1.52
2023-05-20T22:08:04.584Z,1.60
2023-05-20T22:10:33.763Z,1.92
2023-05-20T22:13:01.993Z,2.13
2023-05-20T22:15:31.844Z,2.13
2023-05-20T22:17:58.657Z,1.55
2023-05-20T22:20:25.637Z,1.73
2023-05-20T22:22:52.188Z,1.40
2023-05-20T22:25:21.466Z,1.98
2023-05-20T22:27:50.650Z,2.42
2023-05-20T22:30:17.188Z,2.17
2023-05-20T22:32:46.630Z,1.60
2023-05-20T22:35:13.824Z,1.80
2023-05-20T22:37:40.235Z,1.98
2023-05-20T22:40:08.491Z,2.20
2023-05-20T22:42:35.016Z,1.88
2023-05-20T22:45:01.528Z,1.95
2023-05-20T22:47:35.275Z,1.92
2023-05-20T22:50:03.000Z,1.70
2023-05-20T22:52:29.693Z,1.33
2023-05-20T22:54:56.635Z,1.73
2023-05-20T22:57:23.206Z,1.80
2023-05-20T22:59:49.602Z,1.80
2023-05-20T23:02:16.054Z,1.80
2023-05-20T23:04:42.574Z,2.28
2023-05-20T23:07:09.199Z,2.13
2023-05-20T23:09:35.786Z,2.05
2023-05-20T23:12:02.408Z,1.52
2023-05-20T23:14:28.935Z,2.50
2023-05-20T23:16:55.426Z,1.67
2023-05-20T23:19:22.331Z,1.77
2023-05-20T23:21:48.838Z,1.90
2023-05-20T23:24:16.688Z,1.40
2023-05-20T23:26:43.762Z,2.10
2023-05-20T23:29:10.508Z,1.77
2023-05-20T23:31:37.055Z,1.77
2023-05-20T23:34:03.905Z,1.70
2023-05-20T23:36:34.498Z,1.58
2023-05-20T23:39:02.559Z,2.00
2023-05-20T23:41:31.324Z,1.80
2023-05-20T23:43:57.968Z,2.13
2023-05-20T23:46:24.505Z,2.13
2023-05-20T23:48:53.995Z,1.73
2023-05-20T23:51:20.642Z,2.00
2023-05-20T23:53:47.209Z,1.83
2023-05-20T23:56:13.728Z,1.80
2023-05-20T23:58:40.625Z,2.30
